NWS Home NWS Lubbock West Texas Mesonet Three hour changes as of 0950 AM, Sat Aug 19, 2017

Latest   N   C   S   Daily Sum   3hrΔ   24hrΔ   Soil Data 
Site Map   24hr Precip   72hr Precip   Google Plot


Station Time of Last Temp Now Temp 3h ago Delta-T Dewpoint Now Dewpoint 3hr ago Delta-Td 3hr Press Change (mB)
Reese Center  09:45 AM 79.3 64.3 15 61.5 60.1 1.4 1.2
Abernathy  09:45 AM 76.2 65.2 11 65.1 62.6 2.5 1.1
Plainview  09:45 AM 77.1 65.8 11.3 65.1 63.9 1.2 0.6
Tahoka  09:45 AM 81.4 67.2 14.2 63.4 61.8 1.6 1.2
Slaton  09:45 AM 80.1 66.7 13.4 60.5 60.6 -0.1 1.2
Levelland  09:45 AM 78.6 64.2 14.4 62.2 60.3 1.9 1.1
Roaring Springs  09:45 AM 83 70.4 12.6 67.6 65.8 1.8 0.9
Floydada  09:45 AM 79.3 64.9 14.4 62 63.3 -1.3 0.8
Ralls  09:45 AM 78.4 67.6 10.8 63 62.1 0.9 1.2
Brownfield  09:45 AM 80.6 66.7 13.8 61.9 60.4 1.5 1
Muleshoe  09:45 AM 77.1 62.1 15 65.2 59.5 5.7 0.9
Morton  09:45 AM 77.1 64.6 12.5 65.2 61.4 3.9 1
O'Donnell  09:45 AM 80.4 67.1 13.3 60.7 60.6 0.1 0.8
Seagraves  09:45 AM 79.4 65.4 14 64.4 62 2.4 0.8
Amherst  09:45 AM 74.9 66.1 8.8 65.3 62.5 2.8 0.8
Plains  09:45 AM 78.4 67.4 11 61.8 60.7 1.2 0.8
Lamesa  09:45 AM 78.7 67.3 11.5 66.3 63 3.3 1
Hart  09:45 AM 75 62.4 12.7 66.7 60.6 6.1 0.7
Friona  09:45 AM 76.8 64.7 12.1 64.6 61.8 2.8 0.6
Dimmitt  09:45 AM 76 66.6 9.4 63.6 62.3 1.4 0.7
Tulia  09:45 AM 78.1 66.7 11.5 67 63.6 3.4 0.7
Silverton  09:45 AM 80.6 67 13.6 63.3 62.8 0.5 0.5
Post  09:45 AM 83.6 69.4 14.2 64.3 62.2 2.1 1.1
Seminole  09:45 AM 77.8 65.5 12.3 61.9 59.3 2.6 0.7
Gail  09:45 AM 81.3 67 14.2 65.3 63 2.3 0.9
White River Lake  09:45 AM 82.1 72 10.1 61.4 61.4 0 1
Graham  09:45 AM 82.8 70.7 12.1 62.8 60.7 2.1 1
Sundown  09:45 AM 79.6 64.6 15 62.5 60.2 2.3 0.9
Anton  09:45 AM 76.2 62.4 13.8 64.9 60 5 1
Fluvanna  09:45 AM 80.7 69.6 11 65 64.6 0.4 1
Spur  09:45 AM 82.8 68.2 14.7 64.9 63.4 1.4 1.1
Northwest Lubbock  09:45 AM 78.9 64.9 14 61.4 60.9 0.5 1.2
Guthrie  09:45 AM 85.2 71.6 13.6 66.4 65.2 1.2 1.1
Clarendon  09:45 AM 80.8 69.3 11.5 64.3 63.4 0.9 0.6
Paducah  09:45 AM 84 72.4 11.6 67.9 65.3 2.7 1
Snyder  09:45 AM 81.3 70.6 10.7 69.5 67.4 2 1
Memphis  09:45 AM 83.5 69.5 14 67.2 65.9 1.3 0.4
Jayton  09:45 AM 84.2 71.5 12.7 66.5 65.5 1 0.8
Pampa  09:45 AM 79.8 69.7 10.1 66.2 63.2 3 0.8
Aspermont  09:45 AM 86.4 72.7 13.7 67 67.4 -0.4 1
Hereford  09:45 AM 76.5 66.4 10 62.6 60.4 2.3 0.5
Goodlett  09:45 AM 83.5 72.8 10.7 67.2 67.1 0.1 0.6
McLean  09:45 AM 81 72 9 64 63.6 0.4 0.7
Denver City  09:45 AM 77.3 63.7 13.6 60.7 59.2 1.5 0.8
Lake Alan Henry  09:45 AM 83.3 70.5 12.9 66.3 65.4 0.9 0.9
Wolfforth  09:45 AM 77.9 65.9 12 62.5 61.1 1.4 1.1
Andrews  09:45 AM 76.9 68.6 8.4 63.3 59.8 3.6 0.8
Turkey  09:45 AM 83 71.7 11.3 66.7 65.7 1 0.8
Childress  09:45 AM 84.5 72.1 12.3 66.6 65 1.6 0.7
Tatum  09:45 AM 77.8 61.5 16.3 63.1 58.3 4.9 0.7
Northfield  09:45 AM 83.6 72.7 10.9 64.3 64.7 -0.4 0.7
Dora  09:45 AM 78.6 65.9 12.7 63.1 60.8 2.3 0.7
Northwest San Angelo  09:45 AM 82.1 73.5 8.6 69.1 66 3.1 0.9
Saint Lawrence  09:45 AM 78.1 70.4 7.8 68.9 65.5 3.3 1
Haskell  09:45 AM 84 73.7 10.3 68 66.9 1 0.9
Wall  09:45 AM 81.1 74 7.1 71.9 69.6 2.3 1.1
Seymour  09:45 AM 86.3 74.8 11.4 69.7 69.8 -0.1 0.6
Knox City  09:45 AM 86 73.6 12.3 67.1 68.1 -1 0.9
Guadalupe Mtns Park  09:45 AM 74.2 67.5 6.7 53 55 -2 1
Caprock Canyons   09:45 AM 84.2 74.4 9.8 61.8 63.1 -1.3 0.8
Odell  09:45 AM 83.5 71.4 12.1 73.7 70.1 3.7 0.8
Coyanosa  09:45 AM 81.9 73.2 8.8 67.1 66.7 0.5 1.1
Big Lake  09:45 AM 78.4 71.6 6.8 70.5 67.4 3.1 0.9
Junction  09:45 AM 83.1 72.6 10.5 68.8 68 0.8 0.6
Hobbs  11:20 AM 82.8 67 15.9 63.6 64.9 -1.2 0.5
Canadian  09:45 AM 82.1 72.2 9.9 67.2 66.8 0.4 0.8
Palo Duro Canyon State Park Rim  09:45 AM 81.4 67.4 14 64.6 62.3 2.4 0.6
Bootleg  09:45 AM 75.6 62.3 13.3 63.2 58.8 4.4 1
Sterling City  09:45 AM 80.9 70.5 10.4 70.6 68.3 2.4 0.6
Mertzon  09:45 AM 81.2 72.3 8.9 71.5 68.9 2.6 0.9
Persimmon Gap  09:45 AM 78.3 72.5 5.8 63.6 63.2 0.3 1
Weinert  09:45 AM 84.7 74 10.7 71.1 70 1.1 1
Claude 12 Southwest  09:45 AM 79 72.2 6.8 64.7 62.3 2.3 0.7
Amarillo 7 South Southeast  09:45 AM 78.1 63.1 15 65.4 61.1 4.4 0.7
Umbarger  09:45 AM 76.1 65 11.1 65.4 62.9 2.6 0.6
Lomax  09:45 AM 80.5 69.8 10.7 69.4 68.4 0.9 0.6
Amarillo 9 North Northeast  09:45 AM 78.9 67.8 11.2 66.4 66.5 -0.1 0.7
Aiken 3 West Southwest  09:45 AM 77 64.5 12.5 65.9 64.6 1.4 0.7
Sweetwater  09:45 AM 80.7 74.4 6.3 72 67.9 4.1 0.9
Dozier  09:45 AM 83.4 70.3 13.2 68.2 67.9 0.2 0.5
Amarillo 15 North Northwest  09:45 AM 78.8 67.1 11.7 66.1 65.2 0.8 1
Menard  09:45 AM 80.5 71.5 9 70.6 69.5 1.2 0.7
Tarzan  09:45 AM 79 69.3 9.7 66.8 66 0.8 0.8
Goodnight  09:45 AM 82.7 69.1 13.6 64.7 63.8 0.9 0.7
Boys Ranch   09:45 AM 77.5 66.8 10.7 65.1 64.3 0.8 0.9
Fort McKavett  09:45 AM 81 73 8 69.8 68.6 1.2 0.8
Fort Chadbourne  09:45 AM 81.2 72.6 8.6 71.7 69.9 1.8 0.9
Palo Duro Canyon State Park Floor  09:45 AM 83.1 68 15.1 66.2 64.3 1.9 0.4
Fort Lancaster  09:45 AM 80 74.8 5.2 71.5 69.4 2.2 1.1
Dell City 1N  09:45 AM 73.8 68.6 5.2 62.5 62.4 0.2 1.3
Clyde  09:45 AM 83.8 73.2 10.5 71.4 68.8 2.6 0.9
Snyder SSW  09:45 AM 81.9 71.4 10.5 69.7 67.8 1.9 1
Panhandle  09:45 AM 76.7 64.4 12.3 66.6 62.2 4.4 1
Vigo Park  09:45 AM 77.7 63.5 14.2 67.6 62.5 5.1 0.6
Welch  09:45 AM 79.2 66.2 13.1 66.4 64.1 2.3 0.8
Throckmorton  09:45 AM 85.4 75.5 9.9 72.6 70.6 2 0.8
Sierra Blanca  09:45 AM 69.8 67.1 2.8 62.3 61.9 0.4 1.3
Fort Lewis CO  09:45 AM 69.6 56.2 13.4 40.3 34.7 5.6 1.2
New Home  09:45 AM 78.6 65.1 13.5 64.3 61.5 2.8 1.2
McCamey  09:45 AM 78.7 73.6 5.1 69.7 67.3 2.4 0.9
Stamford  09:45 AM 86.3 75.1 11.2 71.4 70 1.4 0.8
Crowell  09:45 AM 84.6 72.7 11.9 71.5 70.9 0.6 0.9
Stinnett  09:45 AM 78.1 67.6 10.5 65.6 65.1 0.5 0.7
Colorado City  09:45 AM 81.2 70.6 10.6 70 68 2 0.9
Happy  09:45 AM 78.2 64.9 13.3 65.2 62.1 3.2 0.4
Olton  09:45 AM 76.5 63.3 13.2 64.4 60.4 4 0.7

West Texas Mesonet Home   Site Map/Menu  NWS Lubbock Soil Data  Daily Summary Page  24hr Precip  72hr Precip  Google Plot